Time;durP1;ratioP1;P1;durP2;ratioP2;P2;SDS_P1;SDS_P2;PMS_P1;PMS_P2;Temp;Humidity;BMP_temperature;BMP_pressure;BME280_temperature;BME280_humidity;BME280_pressure;Samples;Min_cycle;Max_cycle;Signal;HPM_P1;HPM_P2
2021/06/29 00:00:41;;;;;;;4.30;3.90;;;16.50;99.90;;;;;;5081355;28;20507;-82
2021/06/29 00:03:08;;;;;;;4.23;3.83;;;16.50;99.90;;;;;;5080521;28;20592;-82
2021/06/29 00:05:37;;;;;;;4.70;4.27;;;16.60;99.90;;;;;;5079395;28;20200;-82
2021/06/29 00:08:06;;;;;;;5.10;4.60;;;16.60;99.90;;;;;;5080124;28;20567;-82
2021/06/29 00:10:33;;;;;;;4.57;3.80;;;16.60;99.90;;;;;;5079591;28;20253;-82
2021/06/29 00:12:59;;;;;;;5.13;4.07;;;16.70;99.90;;;;;;5080754;28;20174;-82
2021/06/29 00:15:27;;;;;;;4.63;3.80;;;16.70;99.90;;;;;;5079329;28;20212;-82
2021/06/29 00:17:54;;;;;;;4.13;3.73;;;16.70;99.90;;;;;;5080653;28;20193;-82
2021/06/29 00:20:19;;;;;;;5.03;4.30;;;16.70;99.90;;;;;;5079891;28;20186;-82
2021/06/29 00:22:45;;;;;;;5.40;4.57;;;16.80;99.90;;;;;;5080707;28;20513;-82
2021/06/29 00:25:12;;;;;;;4.63;4.23;;;16.90;99.90;;;;;;5079551;28;20178;-82
2021/06/29 00:27:39;;;;;;;4.90;4.30;;;16.90;99.90;;;;;;5082277;28;20204;-82
2021/06/29 00:30:07;;;;;;;4.57;4.17;;;16.90;99.90;;;;;;5079874;28;20258;-82
2021/06/29 00:32:33;;;;;;;4.53;4.13;;;16.90;99.90;;;;;;5077985;28;20183;-82
2021/06/29 00:34:59;;;;;;;5.90;4.40;;;16.90;99.90;;;;;;5075423;28;20201;-82
2021/06/29 00:37:24;;;;;;;5.57;4.30;;;16.90;99.90;;;;;;5075130;28;20536;-82
2021/06/29 00:39:50;;;;;;;4.77;4.10;;;16.90;99.90;;;;;;5075533;28;20174;-81
2021/06/29 00:42:16;;;;;;;7.10;4.53;;;16.90;99.90;;;;;;5075632;28;20235;-81
2021/06/29 00:44:44;;;;;;;5.40;3.80;;;16.90;99.90;;;;;;5088082;28;20203;-81
2021/06/29 00:47:10;;;;;;;5.13;4.20;;;16.80;99.90;;;;;;5081012;28;20176;-82
2021/06/29 00:49:37;;;;;;;4.80;4.40;;;16.80;99.90;;;;;;5080008;28;20200;-82
2021/06/29 00:52:04;;;;;;;3.90;3.60;;;16.80;99.90;;;;;;5080185;28;20216;-82
2021/06/29 00:54:34;;;;;;;4.10;3.70;;;16.80;99.90;;;;;;5081967;28;20197;-82
2021/06/29 00:57:00;;;;;;;4.60;3.60;;;16.80;99.90;;;;;;5081298;28;20537;-82
2021/06/29 00:59:26;;;;;;;6.57;3.87;;;16.70;99.90;;;;;;5081851;28;20656;-82
2021/06/29 01:01:52;;;;;;;4.97;3.80;;;16.70;99.90;;;;;;5082458;28;20173;-82
2021/06/29 01:04:17;;;;;;;3.87;3.47;;;16.70;99.90;;;;;;5084360;28;20176;-82
2021/06/29 01:06:44;;;;;;;4.17;3.37;;;16.70;99.90;;;;;;5079573;28;20192;-82
2021/06/29 01:09:10;;;;;;;5.07;3.13;;;16.70;99.90;;;;;;5079263;28;20220;-82
2021/06/29 01:11:36;;;;;;;3.57;3.27;;;16.70;99.90;;;;;;5080898;28;20168;-82
2021/06/29 01:14:12;;;;;;;4.53;3.40;;;16.70;99.90;;;;;;5079582;28;20222;-82
2021/06/29 01:16:39;;;;;;;3.63;3.23;;;16.70;99.90;;;;;;5080306;28;20188;-82
2021/06/29 01:19:05;;;;;;;3.90;3.23;;;16.70;99.90;;;;;;5079771;28;20224;-82
2021/06/29 01:21:52;;;;;;;3.43;3.13;;;16.60;99.90;;;;;;5080032;28;20235;-82
2021/06/29 01:24:31;;;;;;;4.00;3.37;;;16.60;99.90;;;;;;5080410;28;20173;-82
2021/06/29 01:29:35;;;;;;;4.13;3.67;;;16.60;99.90;;;;;;5087168;28;20189;-82
2021/06/29 01:32:01;;;;;;;3.23;2.93;;;16.50;99.90;;;;;;5084732;28;20170;-83
2021/06/29 01:34:27;;;;;;;4.53;3.30;;;16.40;99.90;;;;;;5084341;28;20592;-82
2021/06/29 01:36:52;;;;;;;3.83;3.37;;;16.40;99.90;;;;;;5084181;28;20180;-82
2021/06/29 01:39:18;;;;;;;4.23;3.50;;;16.30;99.90;;;;;;5082214;28;20293;-82
2021/06/29 01:41:43;;;;;;;4.10;3.37;;;16.30;99.90;;;;;;5083473;28;20181;-82
2021/06/29 01:44:13;;;;;;;5.27;3.90;;;16.30;99.90;;;;;;5081986;28;20181;-82
2021/06/29 01:46:41;;;;;;;4.33;3.57;;;16.30;99.90;;;;;;5082065;28;20214;-82
2021/06/29 01:49:07;;;;;;;5.10;3.53;;;16.30;99.90;;;;;;5082466;28;20208;-82
2021/06/29 01:51:32;;;;;;;4.97;3.63;;;16.30;99.90;;;;;;5083051;28;20173;-82
2021/06/29 01:53:58;;;;;;;3.50;3.17;;;16.30;99.90;;;;;;5083904;28;20173;-82
2021/06/29 01:56:34;;;;;;;6.80;3.90;;;16.40;99.90;;;;;;5083542;28;20208;-82
2021/06/29 01:59:05;;;;;;;4.00;3.60;;;16.40;99.90;;;;;;5082409;28;20200;-82
2021/06/29 02:01:31;;;;;;;4.93;3.83;;;16.40;99.90;;;;;;5081921;28;20181;-82
2021/06/29 02:03:56;;;;;;;4.70;3.40;;;16.40;99.90;;;;;;5081570;28;20262;-82
2021/06/29 02:06:22;;;;;;;4.00;3.57;;;16.40;99.90;;;;;;5082356;28;20173;-82
2021/06/29 02:08:48;;;;;;;3.93;3.53;;;16.30;99.90;;;;;;5083583;28;20262;-82
2021/06/29 02:11:13;;;;;;;4.93;4.10;;;16.30;99.90;;;;;;5083390;28;20265;-82
2021/06/29 02:13:39;;;;;;;5.03;4.07;;;16.30;99.90;;;;;;5083652;28;20193;-82
2021/06/29 02:16:05;;;;;;;3.90;3.50;;;16.20;99.90;;;;;;5084097;28;20216;-82
2021/06/29 02:18:31;;;;;;;4.20;3.90;;;16.20;99.90;;;;;;5083348;28;20193;-82
2021/06/29 02:20:57;;;;;;;4.70;3.60;;;16.20;99.90;;;;;;5081066;28;20192;-82
2021/06/29 02:23:24;;;;;;;3.90;3.53;;;16.20;99.90;;;;;;5083700;28;20236;-82
2021/06/29 02:25:50;;;;;;;4.77;3.93;;;16.20;99.90;;;;;;5082093;28;20203;-82
2021/06/29 02:28:16;;;;;;;4.00;3.40;;;16.20;99.90;;;;;;5078957;28;20213;-82
2021/06/29 02:30:41;;;;;;;4.33;3.73;;;16.30;99.90;;;;;;5077440;28;20181;-82
2021/06/29 02:33:08;;;;;;;4.37;3.90;;;16.30;99.90;;;;;;5077292;28;20184;-81
2021/06/29 02:35:34;;;;;;;3.87;3.57;;;16.30;99.90;;;;;;5076850;28;20201;-81
2021/06/29 02:38:00;;;;;;;4.50;3.67;;;16.30;99.90;;;;;;5076414;28;20189;-81
2021/06/29 02:40:26;;;;;;;3.97;3.67;;;16.40;99.90;;;;;;5089673;28;20184;-81
2021/06/29 02:42:52;;;;;;;5.27;3.40;;;16.40;99.90;;;;;;5086105;28;20175;-81
2021/06/29 02:45:20;;;;;;;4.17;3.40;;;16.30;99.90;;;;;;5086246;28;20186;-81
2021/06/29 02:47:46;;;;;;;3.90;3.50;;;16.30;99.90;;;;;;5084123;28;20224;-81
2021/06/29 02:50:13;;;;;;;3.50;3.20;;;16.30;99.90;;;;;;5081234;28;20643;-81
2021/06/29 02:52:39;;;;;;;3.30;3.00;;;16.30;99.90;;;;;;5082653;28;20188;-81
2021/06/29 02:55:08;;;;;;;3.87;3.30;;;16.30;99.90;;;;;;5081463;28;20295;-82
2021/06/29 02:57:34;;;;;;;3.90;3.60;;;16.30;99.90;;;;;;5083724;28;20188;-82
2021/06/29 03:00:00;;;;;;;4.00;3.63;;;16.30;99.90;;;;;;5081850;28;20895;-82
2021/06/29 03:02:25;;;;;;;3.80;3.43;;;16.40;99.90;;;;;;5082812;28;20173;-82
2021/06/29 03:04:51;;;;;;;5.63;4.50;;;16.40;99.90;;;;;;5082153;28;20181;-82
2021/06/29 03:07:17;;;;;;;5.10;3.53;;;16.40;99.90;;;;;;5081736;28;20209;-82
2021/06/29 03:09:43;;;;;;;4.47;4.07;;;16.30;99.90;;;;;;5083994;28;20205;-82
2021/06/29 03:12:09;;;;;;;3.83;3.53;;;16.30;99.90;;;;;;5082741;28;20187;-82
2021/06/29 03:14:36;;;;;;;4.10;3.60;;;16.30;99.90;;;;;;5083079;28;20277;-82
2021/06/29 03:17:06;;;;;;;3.90;3.60;;;16.30;99.90;;;;;;5083348;28;20673;-82
2021/06/29 03:19:33;;;;;;;4.17;3.70;;;16.30;99.90;;;;;;5084065;28;20189;-82
2021/06/29 03:22:00;;;;;;;4.77;3.50;;;16.30;99.90;;;;;;5084099;28;20180;-83
2021/06/29 03:24:26;;;;;;;3.97;3.50;;;16.30;99.90;;;;;;5082470;28;20202;-83
2021/06/29 03:26:52;;;;;;;3.73;3.20;;;16.20;99.90;;;;;;5084356;28;20173;-83
2021/06/29 03:29:18;;;;;;;3.67;3.37;;;16.20;99.90;;;;;;5083639;28;20191;-82
2021/06/29 03:31:44;;;;;;;3.60;3.30;;;16.10;99.90;;;;;;5083106;28;20208;-83
2021/06/29 03:34:10;;;;;;;5.10;3.43;;;16.10;99.90;;;;;;5081096;28;20170;-83
2021/06/29 03:36:36;;;;;;;4.10;3.67;;;16.00;99.90;;;;;;5077855;28;20205;-83
2021/06/29 03:39:03;;;;;;;5.27;3.50;;;16.00;99.90;;;;;;5082540;28;20555;-84
2021/06/29 03:41:28;;;;;;;3.00;2.80;;;16.00;99.90;;;;;;5081736;28;20201;-83
2021/06/29 03:43:54;;;;;;;3.00;2.80;;;15.90;99.90;;;;;;5082337;28;20644;-84
2021/06/29 03:46:20;;;;;;;3.67;3.10;;;15.90;99.90;;;;;;5082283;28;20187;-84
2021/06/29 03:48:46;;;;;;;3.83;2.70;;;15.90;99.90;;;;;;5083537;28;20252;-84
2021/06/29 03:51:11;;;;;;;3.20;2.83;;;15.90;99.90;;;;;;5084844;28;20177;-84
2021/06/29 03:53:37;;;;;;;3.43;3.13;;;15.90;99.90;;;;;;5083231;28;20179;-84
2021/06/29 03:56:03;;;;;;;3.50;3.20;;;16.00;99.90;;;;;;5084378;28;20197;-84
2021/06/29 03:58:29;;;;;;;2.60;2.40;;;16.00;99.90;;;;;;5082656;28;20196;-84
2021/06/29 04:00:54;;;;;;;3.33;2.70;;;16.00;99.90;;;;;;5084297;28;20169;-84
2021/06/29 04:03:20;;;;;;;3.27;2.97;;;16.00;99.90;;;;;;5083613;28;20203;-84
2021/06/29 04:05:46;;;;;;;3.00;2.80;;;16.00;99.90;;;;;;5084667;28;20172;-84
2021/06/29 04:08:11;;;;;;;4.43;2.67;;;16.00;99.90;;;;;;5083101;28;20200;-84
2021/06/29 04:10:37;;;;;;;3.80;3.20;;;16.00;99.90;;;;;;5083653;28;20181;-84
2021/06/29 04:13:03;;;;;;;3.43;3.13;;;16.10;99.90;;;;;;5083622;28;20176;-83
2021/06/29 04:15:29;;;;;;;3.13;2.83;;;16.10;99.90;;;;;;5085351;28;20192;-84
2021/06/29 04:17:55;;;;;;;5.53;3.50;;;16.10;99.90;;;;;;5086188;28;20249;-84
2021/06/29 04:20:20;;;;;;;3.43;3.10;;;16.10;99.90;;;;;;5087160;28;20185;-83
2021/06/29 04:22:46;;;;;;;4.47;3.00;;;16.10;99.90;;;;;;5088425;28;20196;-84
2021/06/29 04:25:12;;;;;;;2.63;2.43;;;16.20;99.90;;;;;;5090215;28;20187;-84
2021/06/29 04:27:38;;;;;;;7.17;2.90;;;16.10;99.90;;;;;;5088608;28;20208;-84
2021/06/29 04:30:08;;;;;;;2.90;2.70;;;16.10;99.90;;;;;;5086895;28;20213;-84
2021/06/29 04:32:34;;;;;;;3.20;2.60;;;16.20;99.90;;;;;;5082582;28;20630;-84
2021/06/29 04:35:00;;;;;;;3.57;2.60;;;16.10;99.90;;;;;;5088712;28;20252;-83
2021/06/29 04:37:26;;;;;;;3.83;2.20;;;16.20;99.90;;;;;;5085817;28;20196;-84
2021/06/29 04:39:51;;;;;;;2.20;1.87;;;16.10;99.90;;;;;;5080491;28;20197;-84
2021/06/29 04:42:17;;;;;;;6.50;1.97;;;16.20;99.90;;;;;;5078178;28;20177;-84
2021/06/29 04:44:43;;;;;;;3.37;2.00;;;16.20;99.90;;;;;;5079178;28;20665;-84
2021/06/29 04:47:09;;;;;;;2.60;2.20;;;16.20;99.90;;;;;;5080688;28;20244;-84
2021/06/29 04:49:36;;;;;;;3.83;2.23;;;16.20;99.90;;;;;;5080853;28;20228;-83
2021/06/29 04:52:02;;;;;;;2.30;2.10;;;16.20;99.90;;;;;;5078570;28;20279;-83
2021/06/29 04:54:28;;;;;;;2.77;2.27;;;16.20;99.90;;;;;;5079688;28;20575;-84
2021/06/29 04:56:54;;;;;;;2.43;2.23;;;16.30;99.90;;;;;;5078545;28;20263;-84
2021/06/29 04:59:19;;;;;;;2.10;1.90;;;16.30;99.90;;;;;;5080618;28;20189;-84
2021/06/29 05:01:45;;;;;;;2.33;1.70;;;16.30;99.90;;;;;;5077062;28;20211;-84
2021/06/29 05:04:11;;;;;;;2.30;2.10;;;16.30;99.90;;;;;;5080284;28;20173;-84
2021/06/29 05:06:36;;;;;;;4.90;2.10;;;16.30;99.90;;;;;;5079046;28;20185;-84
2021/06/29 05:09:02;;;;;;;3.30;2.07;;;16.20;99.90;;;;;;5079396;28;20222;-84
2021/06/29 05:11:28;;;;;;;3.83;1.73;;;16.20;99.90;;;;;;5076633;28;20200;-84
2021/06/29 05:13:54;;;;;;;2.30;1.83;;;16.20;99.90;;;;;;5077520;28;20272;-84
2021/06/29 05:16:19;;;;;;;2.50;1.60;;;16.20;99.90;;;;;;5076641;28;20678;-83
2021/06/29 05:18:45;;;;;;;2.93;1.60;;;16.10;99.90;;;;;;5076717;28;20196;-84
2021/06/29 05:21:10;;;;;;;2.47;1.80;;;16.20;99.90;;;;;;5076069;28;20174;-83
2021/06/29 05:23:36;;;;;;;2.37;1.83;;;16.10;99.90;;;;;;5076029;28;20240;-82
2021/06/29 05:26:02;;;;;;;4.23;2.40;;;16.10;99.90;;;;;;5074934;28;20178;-82
2021/06/29 05:28:28;;;;;;;1.83;1.73;;;16.10;99.90;;;;;;5076470;28;20212;-83
2021/06/29 05:30:55;;;;;;;2.53;2.00;;;16.10;99.90;;;;;;5077408;28;20661;-84
2021/06/29 05:33:21;;;;;;;2.80;2.17;;;16.10;99.90;;;;;;5079202;28;20657;-85
2021/06/29 05:35:47;;;;;;;2.53;2.33;;;16.10;99.90;;;;;;5077171;28;20212;-84
2021/06/29 05:38:13;;;;;;;3.17;2.57;;;16.20;99.90;;;;;;5077888;28;20663;-84
2021/06/29 05:40:39;;;;;;;3.80;2.70;;;16.20;99.90;;;;;;5077605;28;20181;-84
2021/06/29 05:43:05;;;;;;;3.70;2.40;;;16.30;99.90;;;;;;5078145;28;20178;-84
2021/06/29 05:45:31;;;;;;;2.53;2.00;;;16.30;99.90;;;;;;5078903;28;20637;-83
2021/06/29 05:47:57;;;;;;;2.70;2.20;;;16.30;99.90;;;;;;5078298;28;20227;-84
2021/06/29 05:50:23;;;;;;;3.33;2.13;;;16.40;99.90;;;;;;5077737;28;20204;-84
2021/06/29 05:52:49;;;;;;;2.43;2.03;;;16.50;99.90;;;;;;5080516;28;20187;-84
2021/06/29 05:55:15;;;;;;;2.43;1.90;;;16.70;99.90;;;;;;5078675;28;20670;-82
2021/06/29 05:57:42;;;;;;;5.80;2.20;;;16.80;99.90;;;;;;5077690;28;20201;-82
2021/06/29 06:00:14;;;;;;;3.57;1.63;;;17.00;99.90;;;;;;5077453;28;20184;-83
2021/06/29 06:02:40;;;;;;;2.40;1.77;;;17.10;99.90;;;;;;5077603;28;20168;-83
2021/06/29 06:05:07;;;;;;;1.77;1.57;;;17.30;99.90;;;;;;5077962;28;20185;-84
2021/06/29 06:07:34;;;;;;;2.27;1.10;;;17.40;99.90;;;;;;5078787;28;20212;-83
2021/06/29 06:10:00;;;;;;;1.40;1.30;;;17.40;99.90;;;;;;5079124;28;20193;-85
2021/06/29 06:12:26;;;;;;;1.60;1.40;;;17.40;99.90;;;;;;5082260;28;20290;-84
2021/06/29 06:14:52;;;;;;;3.00;1.50;;;17.30;99.90;;;;;;5078193;28;20205;-83
2021/06/29 06:17:18;;;;;;;6.07;2.10;;;17.30;99.90;;;;;;5078488;28;20203;-85
2021/06/29 06:19:43;;;;;;;3.30;1.87;;;17.20;99.90;;;;;;5080236;28;20176;-85
2021/06/29 06:22:10;;;;;;;1.97;1.77;;;17.10;99.90;;;;;;5078837;28;20189;-85
2021/06/29 06:24:35;;;;;;;1.80;1.70;;;17.10;99.90;;;;;;5078581;28;20173;-83
2021/06/29 06:27:01;;;;;;;2.20;1.57;;;17.10;99.90;;;;;;5078908;28;20272;-85
2021/06/29 06:29:27;;;;;;;3.93;1.73;;;17.10;99.90;;;;;;5076848;28;20208;-84
2021/06/29 06:31:53;;;;;;;2.57;1.57;;;17.10;99.90;;;;;;5081776;28;20181;-84
2021/06/29 06:34:19;;;;;;;2.67;1.80;;;17.10;99.90;;;;;;5085079;28;20173;-84
2021/06/29 06:36:46;;;;;;;2.60;1.70;;;17.10;99.90;;;;;;5081751;28;20212;-84
2021/06/29 06:39:12;;;;;;;4.30;2.40;;;17.30;99.90;;;;;;5079469;28;20197;-85
2021/06/29 06:41:38;;;;;;;7.63;3.03;;;17.40;99.90;;;;;;5080703;28;20173;-84
2021/06/29 06:44:04;;;;;;;5.23;1.87;;;17.60;99.90;;;;;;5078585;28;20647;-84
2021/06/29 06:46:29;;;;;;;2.47;1.40;;;17.60;99.90;;;;;;5078515;28;20590;-85
2021/06/29 06:48:55;;;;;;;1.50;1.30;;;17.60;99.90;;;;;;5077653;28;20204;-85
2021/06/29 06:51:20;;;;;;;1.93;1.40;;;17.50;99.90;;;;;;5076831;28;20272;-86
2021/06/29 06:53:46;;;;;;;3.20;1.50;;;17.40;99.90;;;;;;5076311;28;20530;-85
2021/06/29 06:56:15;;;;;;;3.33;1.37;;;17.40;99.90;;;;;;5076551;28;20205;-86
2021/06/29 06:58:46;;;;;;;5.60;2.67;;;17.20;99.90;;;;;;5076149;28;20334;-86
2021/06/29 07:01:12;;;;;;;6.60;2.40;;;17.20;99.90;;;;;;5099881;28;20251;-85
2021/06/29 07:03:38;;;;;;;5.17;2.07;;;17.30;99.90;;;;;;5101720;28;20180;-85
2021/06/29 07:06:05;;;;;;;4.80;2.23;;;17.30;99.90;;;;;;5102385;28;20172;-85
2021/06/29 07:08:32;;;;;;;3.33;1.90;;;17.40;99.90;;;;;;5100410;28;20200;-85
2021/06/29 07:10:58;;;;;;;2.90;1.97;;;17.60;99.90;;;;;;5102183;28;20187;-85
2021/06/29 07:13:24;;;;;;;2.07;1.60;;;17.60;99.90;;;;;;5103461;28;20255;-85
2021/06/29 07:15:50;;;;;;;1.40;1.30;;;17.70;99.90;;;;;;5104287;28;20266;-85
2021/06/29 07:18:17;;;;;;;1.33;1.20;;;17.90;99.90;;;;;;5101408;28;20597;-85
2021/06/29 07:20:44;;;;;;;2.63;1.40;;;18.00;99.90;;;;;;5100161;28;20661;-85
2021/06/29 07:23:11;;;;;;;1.20;1.10;;;18.00;99.90;;;;;;5099936;28;20203;-85
2021/06/29 07:25:37;;;;;;;2.37;1.63;;;18.10;99.90;;;;;;5102361;28;20172;-85
2021/06/29 07:28:03;;;;;;;2.33;1.13;;;18.20;99.90;;;;;;5102915;28;20222;-85
2021/06/29 07:30:29;;;;;;;2.87;1.47;;;18.30;99.90;;;;;;5102403;28;20640;-85
2021/06/29 07:32:58;;;;;;;1.70;1.30;;;18.60;99.90;;;;;;5103998;28;20173;-85
2021/06/29 07:35:24;;;;;;;3.93;1.13;;;18.80;99.90;;;;;;5102115;28;20206;-85
2021/06/29 07:37:51;;;;;;;2.30;1.00;;;19.00;99.90;;;;;;5101814;28;20250;-85
2021/06/29 07:40:17;;;;;;;1.80;1.00;;;19.00;99.90;;;;;;5103119;28;20579;-85
2021/06/29 07:42:43;;;;;;;1.20;0.80;;;19.00;99.90;;;;;;5102202;28;20183;-84
2021/06/29 07:45:10;;;;;;;1.00;0.70;;;19.00;99.90;;;;;;5101739;28;20253;-85
2021/06/29 07:47:36;;;;;;;1.63;1.00;;;18.90;99.90;;;;;;5103003;28;20216;-84
2021/06/29 07:50:06;;;;;;;2.00;0.70;;;18.70;99.90;;;;;;5102557;28;20636;-84
2021/06/29 07:52:32;;;;;;;1.87;1.23;;;18.60;99.90;;;;;;5104302;28;20169;-84
2021/06/29 07:54:57;;;;;;;2.30;0.80;;;18.60;99.90;;;;;;5105405;28;20593;-83
2021/06/29 07:57:23;;;;;;;3.33;1.10;;;18.70;99.90;;;;;;5100639;28;20627;-83
2021/06/29 07:59:49;;;;;;;1.30;1.20;;;18.70;99.90;;;;;;5101375;28;20179;-83
2021/06/29 08:02:14;;;;;;;1.03;0.93;;;18.70;99.90;;;;;;5101847;28;20177;-83
2021/06/29 08:04:41;;;;;;;1.50;0.90;;;18.70;99.90;;;;;;5100202;28;20181;-83
2021/06/29 08:07:06;;;;;;;1.20;0.90;;;18.80;99.90;;;;;;5099768;28;20169;-80
2021/06/29 08:09:32;;;;;;;2.33;1.40;;;18.90;99.90;;;;;;5098430;28;20194;-80
2021/06/29 08:11:58;;;;;;;2.93;1.40;;;19.10;99.90;;;;;;5096869;28;20273;-80
2021/06/29 08:14:24;;;;;;;1.87;1.50;;;19.20;99.90;;;;;;5098233;28;20179;-80
2021/06/29 08:16:50;;;;;;;1.10;0.90;;;19.50;99.90;;;;;;5095864;28;20206;-81
2021/06/29 08:19:17;;;;;;;0.80;0.80;;;19.60;99.90;;;;;;5095374;28;20256;-80
2021/06/29 08:21:43;;;;;;;1.57;0.93;;;19.70;99.90;;;;;;5096276;28;20582;-81
2021/06/29 08:24:11;;;;;;;1.10;0.80;;;19.80;99.90;;;;;;5094620;28;20663;-81
2021/06/29 08:26:36;;;;;;;1.10;1.00;;;19.90;99.90;;;;;;5095761;28;20243;-81
2021/06/29 08:29:02;;;;;;;0.80;0.60;;;20.10;99.90;;;;;;5099934;28;20182;-80
2021/06/29 08:31:28;;;;;;;1.10;1.00;;;20.30;99.90;;;;;;5103464;28;20228;-81
2021/06/29 08:33:54;;;;;;;0.80;0.70;;;20.40;99.90;;;;;;5100021;28;20531;-81
2021/06/29 08:36:21;;;;;;;1.00;0.80;;;20.60;99.90;;;;;;5097328;28;20680;-80
2021/06/29 08:38:48;;;;;;;2.00;0.70;;;20.70;99.90;;;;;;5098322;28;20193;-80
2021/06/29 08:41:15;;;;;;;1.23;1.00;;;20.90;99.90;;;;;;5097974;28;20203;-80
2021/06/29 08:43:41;;;;;;;0.97;0.70;;;21.10;99.90;;;;;;5097578;28;20237;-80
2021/06/29 08:46:08;;;;;;;1.40;0.73;;;21.50;99.90;;;;;;5097121;28;20179;-81
2021/06/29 08:48:33;;;;;;;0.80;0.80;;;21.80;99.90;;;;;;5098012;28;20199;-80
2021/06/29 08:51:06;;;;;;;1.27;0.93;;;21.90;99.90;;;;;;5096318;28;20177;-81
2021/06/29 08:53:34;;;;;;;1.43;1.00;;;22.20;99.90;;;;;;5096710;28;20180;-81
2021/06/29 08:56:00;;;;;;;0.80;0.80;;;22.10;99.90;;;;;;5098058;28;20695;-80
2021/06/29 08:58:28;;;;;;;0.93;0.83;;;22.20;99.90;;;;;;5096349;28;20275;-80
2021/06/29 09:00:55;;;;;;;1.97;1.07;;;22.40;99.90;;;;;;5096767;28;20530;-81
2021/06/29 09:03:21;;;;;;;0.90;0.90;;;22.80;99.90;;;;;;5097588;28;20164;-81
2021/06/29 09:05:49;;;;;;;1.10;0.80;;;23.00;99.90;;;;;;5097688;28;20180;-81
2021/06/29 09:08:17;;;;;;;3.60;1.20;;;23.40;99.90;;;;;;5099283;28;20279;-81
2021/06/29 09:11:02;;;;;;;1.17;1.07;;;23.50;99.90;;;;;;5100049;28;20507;-81
2021/06/29 09:13:30;;;;;;;1.80;0.87;;;23.80;99.90;;;;;;5100555;28;20157;-81
2021/06/29 09:15:56;;;;;;;2.90;0.90;;;24.00;99.90;;;;;;5099278;28;20196;-81
2021/06/29 09:18:27;;;;;;;4.43;1.43;;;24.30;99.90;;;;;;5099077;28;20194;-80
2021/06/29 09:21:02;;;;;;;1.23;0.80;;;24.30;99.90;;;;;;5100032;28;20611;-81
2021/06/29 09:23:35;;;;;;;1.87;0.93;;;24.00;99.90;;;;;;5100136;28;20529;-81
2021/06/29 09:26:11;;;;;;;2.07;0.97;;;23.90;99.90;;;;;;5099322;28;20178;-80
2021/06/29 09:28:47;;;;;;;3.13;1.10;;;24.00;99.90;;;;;;5100771;28;20214;-81
2021/06/29 09:31:18;;;;;;;0.80;0.70;;;24.30;99.90;;;;;;5100796;28;20537;-81
2021/06/29 09:33:52;;;;;;;1.50;0.83;;;24.60;99.90;;;;;;5100997;28;20184;-81
2021/06/29 09:36:21;;;;;;;1.60;1.13;;;24.80;99.90;;;;;;5101249;28;20217;-80
2021/06/29 09:38:49;;;;;;;1.10;0.83;;;24.90;99.90;;;;;;5100180;28;20204;-80
2021/06/29 09:41:23;;;;;;;3.47;1.00;;;24.90;99.90;;;;;;5100387;28;20176;-81
2021/06/29 09:44:03;;;;;;;1.67;1.00;;;25.00;99.90;;;;;;5099465;28;20187;-80
2021/06/29 09:46:29;;;;;;;2.70;1.20;;;25.20;99.90;;;;;;5101195;28;20156;-81
2021/06/29 09:48:59;;;;;;;1.30;1.00;;;25.30;99.90;;;;;;5101503;28;20210;-85
2021/06/29 09:51:30;;;;;;;2.37;0.90;;;25.30;99.90;;;;;;5103048;28;20180;-80
2021/06/29 09:54:05;;;;;;;1.50;1.10;;;25.40;99.90;;;;;;5100488;28;20169;-81
2021/06/29 09:56:38;;;;;;;1.70;0.80;;;25.50;99.90;;;;;;5101822;28;20657;-79
2021/06/29 09:59:09;;;;;;;1.43;1.20;;;25.70;99.90;;;;;;5101996;28;20190;-81
2021/06/29 10:01:35;;;;;;;2.30;1.00;;;25.80;99.90;;;;;;5105753;28;20226;-81
2021/06/29 10:04:05;;;;;;;1.07;0.80;;;25.80;99.90;;;;;;5089697;28;20559;-82
2021/06/29 10:06:32;;;;;;;1.17;1.00;;;25.80;99.90;;;;;;5079850;28;20178;-81
2021/06/29 10:09:05;;;;;;;1.03;0.90;;;25.90;99.90;;;;;;5080643;28;20676;-80
2021/06/29 10:11:52;;;;;;;1.20;0.93;;;26.00;99.90;;;;;;5079772;28;20208;-80
2021/06/29 10:14:21;;;;;;;3.63;0.90;;;26.10;99.90;;;;;;5081375;28;20178;-80
2021/06/29 10:16:49;;;;;;;0.90;0.90;;;26.20;99.90;;;;;;5080119;28;20679;-81
2021/06/29 10:19:47;;;;;;;2.23;0.97;;;26.30;99.90;;;;;;5080458;28;20199;-83
2021/06/29 10:22:13;;;;;;;3.77;0.90;;;26.40;99.90;;;;;;5080243;28;20612;-81
2021/06/29 10:24:42;;;;;;;0.80;0.70;;;26.40;99.90;;;;;;5089042;28;20195;-81
2021/06/29 10:27:08;;;;;;;1.10;1.00;;;26.50;99.90;;;;;;5083307;28;20276;-84
2021/06/29 10:29:35;;;;;;;1.80;1.03;;;26.70;99.90;;;;;;5084153;28;20205;-81
2021/06/29 10:32:06;;;;;;;1.27;1.00;;;26.90;99.90;;;;;;5084163;28;20176;-81
2021/06/29 10:34:33;;;;;;;0.80;0.80;;;27.20;99.90;;;;;;5083069;28;20178;-82
2021/06/29 10:36:59;;;;;;;0.93;0.80;;;27.40;99.90;;;;;;5083079;28;20178;-83
2021/06/29 10:39:28;;;;;;;1.27;0.90;;;27.50;99.90;;;;;;5085073;28;20200;-81
2021/06/29 10:42:01;;;;;;;1.17;0.80;;;27.50;99.90;;;;;;5084272;28;20177;-82
2021/06/29 10:44:28;;;;;;;0.97;0.80;;;27.70;99.90;;;;;;5083777;28;20161;-81
2021/06/29 10:46:57;;;;;;;2.63;0.80;;;27.70;99.90;;;;;;5085708;28;20187;-82
2021/06/29 10:49:46;;;;;;;5.40;1.10;;;28.00;99.90;;;;;;5105249;28;20200;-83
2021/06/29 10:52:28;;;;;;;4.10;1.00;;;28.00;99.90;;;;;;5102874;28;20179;-84
2021/06/29 10:55:02;;;;;;;2.10;0.90;;;27.90;99.90;;;;;;5102251;28;20201;-83
2021/06/29 10:57:38;;;;;;;1.37;0.70;;;27.90;99.90;;;;;;5100142;28;20195;-81
2021/06/29 11:00:21;;;;;;;2.73;0.87;;;27.70;99.90;;;;;;5093951;28;20173;-81
2021/06/29 11:02:57;;;;;;;1.00;0.80;;;27.50;99.90;;;;;;5087004;28;20226;-82
2021/06/29 11:05:25;;;;;;;1.30;0.80;;;27.30;99.90;;;;;;5081545;28;20638;-82
2021/06/29 11:07:51;;;;;;;1.47;0.70;;;27.00;99.90;;;;;;5099592;28;20285;-83
2021/06/29 11:10:31;;;;;;;1.30;0.90;;;26.80;99.90;;;;;;5102761;28;20240;-84
2021/06/29 11:13:01;;;;;;;1.10;0.80;;;26.60;99.90;;;;;;5097645;28;20186;-81
2021/06/29 11:15:46;;;;;;;1.73;0.70;;;27.10;99.90;;;;;;5100372;28;20195;-80
2021/06/29 11:18:13;;;;;;;0.87;0.70;;;27.70;99.90;;;;;;5091875;28;20206;-81
2021/06/29 11:20:52;;;;;;;0.83;0.70;;;28.00;99.90;;;;;;5080951;28;20177;-81
2021/06/29 11:23:25;;;;;;;1.03;0.77;;;28.20;99.90;;;;;;5088572;28;20255;-79
2021/06/29 11:25:59;;;;;;;2.20;0.90;;;28.50;99.90;;;;;;5096884;28;20184;-79
2021/06/29 11:28:36;;;;;;;3.03;1.00;;;28.60;99.90;;;;;;5096841;28;20208;-79
2021/06/29 11:31:20;;;;;;;2.20;0.87;;;28.90;99.90;;;;;;5094389;28;20176;-81
2021/06/29 11:33:49;;;;;;;1.07;0.90;;;29.10;99.90;;;;;;5079977;28;20175;-79
2021/06/29 11:36:24;;;;;;;1.30;0.97;;;29.40;99.30;;;;;;5077040;28;20205;-80
2021/06/29 11:38:52;;;;;;;10.17;1.93;;;29.60;99.50;;;;;;5078157;28;20188;-79
2021/06/29 11:41:36;;;;;;;2.63;1.20;;;29.90;99.90;;;;;;5096298;28;20177;-79
2021/06/29 11:44:02;;;;;;;2.20;1.20;;;30.20;99.90;;;;;;5097710;28;20165;-79
2021/06/29 11:46:47;;;;;;;2.27;1.00;;;30.30;99.90;;;;;;5094001;28;20518;-83
2021/06/29 11:49:15;;;;;;;2.70;1.17;;;30.30;97.60;;;;;;5077908;28;20201;-80
2021/06/29 11:51:51;;;;;;;1.63;0.90;;;30.10;99.90;;;;;;5086366;28;20172;-79
2021/06/29 11:54:29;;;;;;;1.53;1.10;;;30.20;98.50;;;;;;5097446;28;20210;-83
2021/06/29 11:56:56;;;;;;;2.97;1.00;;;30.40;98.80;;;;;;5096125;28;20669;-78
2021/06/29 11:59:27;;;;;;;1.43;1.00;;;30.70;99.90;;;;;;5076814;28;20191;-78
2021/06/29 12:02:05;;;;;;;1.47;1.13;;;30.90;99.90;;;;;;5080862;28;20181;-78
2021/06/29 12:04:32;;;;;;;5.23;0.80;;;31.20;97.80;;;;;;5085825;28;20225;-78
2021/06/29 12:07:08;;;;;;;1.17;0.83;;;31.00;99.90;;;;;;5076016;28;20207;-82
2021/06/29 12:09:36;;;;;;;1.13;1.03;;;31.20;99.20;;;;;;5076681;28;20228;-85
2021/06/29 12:12:23;;;;;;;2.33;0.87;;;31.40;99.90;;;;;;5092146;28;20204;-85
2021/06/29 12:15:07;;;;;;;1.20;0.87;;;31.50;97.30;;;;;;5097186;28;20172;-84
2021/06/29 12:17:34;;;;;;;1.40;0.90;;;31.80;99.90;;;;;;5077897;28;20175;-85
2021/06/29 12:20:21;;;;;;;3.40;1.00;;;32.20;97.30;;;;;;5089131;28;20199;-83
2021/06/29 12:22:48;;;;;;;2.13;0.93;;;32.00;95.50;;;;;;5077026;28;20158;-79
2021/06/29 12:25:24;;;;;;;1.90;0.87;;;32.00;93.90;;;;;;5076936;28;20282;-79
2021/06/29 12:28:00;;;;;;;1.17;0.90;;;32.10;97.80;;;;;;5076194;28;20282;-79
2021/06/29 12:30:38;;;;;;;1.93;1.10;;;32.30;99.30;;;;;;5078202;28;20153;-82
2021/06/29 12:33:32;;;;;;;1.20;1.10;;;32.70;93.70;;;;;;5078558;28;20201;-83
2021/06/29 12:36:08;;;;;;;2.87;1.10;;;32.80;97.90;;;;;;5080273;28;20185;-82
2021/06/29 12:38:37;;;;;;;1.70;1.10;;;32.60;94.30;;;;;;5079114;28;20665;-82
2021/06/29 12:41:13;;;;;;;1.47;1.27;;;32.60;95.40;;;;;;5080215;28;20169;-83
2021/06/29 12:43:46;;;;;;;3.90;1.20;;;32.70;93.70;;;;;;5078564;28;20173;-82
2021/06/29 12:46:19;;;;;;;1.53;1.10;;;32.50;98.20;;;;;;5081530;28;20526;-82
2021/06/29 12:49:20;;;;;;;1.10;1.00;;;32.40;92.60;;;;;;5080053;28;20255;-83
2021/06/29 12:51:47;;;;;;;1.77;1.10;;;32.50;97.00;;;;;;5079904;28;20240;-82
2021/06/29 12:54:16;;;;;;;1.20;1.10;;;32.60;94.20;;;;;;5082756;28;20174;-83
2021/06/29 12:56:47;;;;;;;1.23;0.90;;;32.30;90.80;;;;;;5080794;28;20201;-82